sensor_id;sensor_type;location;lat;lon;timestamp;P1;durP1;ratioP1;P2;durP2;ratioP2
54428;SDS011;40337;52.978;6.310;2022-07-22T00:02:25;9.55;;;3.28;;
54428;SDS011;40337;52.978;6.310;2022-07-22T00:04:51;11.32;;;2.95;;
54428;SDS011;40337;52.978;6.310;2022-07-22T00:07:16;10.40;;;3.78;;
54428;SDS011;40337;52.978;6.310;2022-07-22T00:09:42;9.32;;;3.17;;
54428;SDS011;40337;52.978;6.310;2022-07-22T00:12:08;7.68;;;2.80;;
54428;SDS011;40337;52.978;6.310;2022-07-22T00:14:33;7.65;;;3.00;;
54428;SDS011;40337;52.978;6.310;2022-07-22T00:16:59;11.30;;;3.05;;
54428;SDS011;40337;52.978;6.310;2022-07-22T00:19:25;8.75;;;3.00;;
54428;SDS011;40337;52.978;6.310;2022-07-22T00:21:51;9.48;;;3.05;;
54428;SDS011;40337;52.978;6.310;2022-07-22T00:24:17;11.82;;;2.92;;
54428;SDS011;40337;52.978;6.310;2022-07-22T00:26:42;7.95;;;2.95;;
54428;SDS011;40337;52.978;6.310;2022-07-22T00:29:08;8.05;;;2.92;;
54428;SDS011;40337;52.978;6.310;2022-07-22T00:31:34;9.02;;;2.97;;
54428;SDS011;40337;52.978;6.310;2022-07-22T00:34:00;8.93;;;2.83;;
54428;SDS011;40337;52.978;6.310;2022-07-22T00:36:29;9.63;;;3.28;;
54428;SDS011;40337;52.978;6.310;2022-07-22T00:38:55;9.43;;;2.80;;
54428;SDS011;40337;52.978;6.310;2022-07-22T00:41:21;8.70;;;2.88;;
54428;SDS011;40337;52.978;6.310;2022-07-22T00:44:00;9.30;;;2.90;;
54428;SDS011;40337;52.978;6.310;2022-07-22T00:46:27;7.97;;;2.70;;
54428;SDS011;40337;52.978;6.310;2022-07-22T00:48:54;11.02;;;2.90;;
54428;SDS011;40337;52.978;6.310;2022-07-22T00:51:20;8.93;;;2.80;;
54428;SDS011;40337;52.978;6.310;2022-07-22T00:53:47;6.22;;;2.67;;
54428;SDS011;40337;52.978;6.310;2022-07-22T00:56:13;7.75;;;2.80;;
54428;SDS011;40337;52.978;6.310;2022-07-22T00:58:40;9.95;;;2.70;;
54428;SDS011;40337;52.978;6.310;2022-07-22T01:01:06;7.95;;;2.60;;
54428;SDS011;40337;52.978;6.310;2022-07-22T01:03:32;7.78;;;2.50;;
54428;SDS011;40337;52.978;6.310;2022-07-22T01:05:57;10.57;;;3.35;;
54428;SDS011;40337;52.978;6.310;2022-07-22T01:08:23;8.18;;;2.65;;
54428;SDS011;40337;52.978;6.310;2022-07-22T01:10:49;7.43;;;2.70;;
54428;SDS011;40337;52.978;6.310;2022-07-22T01:13:14;7.45;;;2.75;;
54428;SDS011;40337;52.978;6.310;2022-07-22T01:15:40;8.25;;;2.55;;
54428;SDS011;40337;52.978;6.310;2022-07-22T01:18:06;8.80;;;2.53;;
54428;SDS011;40337;52.978;6.310;2022-07-22T01:20:31;8.05;;;2.88;;
54428;SDS011;40337;52.978;6.310;2022-07-22T01:22:57;5.70;;;2.58;;
54428;SDS011;40337;52.978;6.310;2022-07-22T01:25:23;10.10;;;2.42;;
54428;SDS011;40337;52.978;6.310;2022-07-22T01:27:48;8.55;;;2.80;;
54428;SDS011;40337;52.978;6.310;2022-07-22T01:30:14;7.55;;;2.55;;
54428;SDS011;40337;52.978;6.310;2022-07-22T01:32:39;6.63;;;2.67;;
54428;SDS011;40337;52.978;6.310;2022-07-22T01:35:05;9.55;;;2.90;;
54428;SDS011;40337;52.978;6.310;2022-07-22T01:37:32;9.40;;;2.72;;
54428;SDS011;40337;52.978;6.310;2022-07-22T01:39:58;8.38;;;2.60;;
54428;SDS011;40337;52.978;6.310;2022-07-22T01:42:24;7.78;;;2.40;;
54428;SDS011;40337;52.978;6.310;2022-07-22T01:44:49;7.30;;;2.65;;
54428;SDS011;40337;52.978;6.310;2022-07-22T01:47:15;9.48;;;2.55;;
54428;SDS011;40337;52.978;6.310;2022-07-22T01:49:41;5.78;;;2.30;;
54428;SDS011;40337;52.978;6.310;2022-07-22T01:52:07;6.80;;;2.47;;
54428;SDS011;40337;52.978;6.310;2022-07-22T01:54:32;6.50;;;2.20;;
54428;SDS011;40337;52.978;6.310;2022-07-22T01:56:58;7.00;;;2.83;;
54428;SDS011;40337;52.978;6.310;2022-07-22T01:59:24;7.68;;;2.40;;
54428;SDS011;40337;52.978;6.310;2022-07-22T02:01:49;12.57;;;2.50;;
54428;SDS011;40337;52.978;6.310;2022-07-22T02:04:15;9.02;;;2.50;;
54428;SDS011;40337;52.978;6.310;2022-07-22T02:06:41;9.05;;;2.35;;
54428;SDS011;40337;52.978;6.310;2022-07-22T02:09:06;8.88;;;2.85;;
54428;SDS011;40337;52.978;6.310;2022-07-22T02:11:32;7.20;;;2.42;;
54428;SDS011;40337;52.978;6.310;2022-07-22T02:13:58;6.50;;;2.70;;
54428;SDS011;40337;52.978;6.310;2022-07-22T02:16:24;6.43;;;2.17;;
54428;SDS011;40337;52.978;6.310;2022-07-22T02:18:49;8.23;;;2.55;;
54428;SDS011;40337;52.978;6.310;2022-07-22T02:21:15;6.72;;;2.53;;
54428;SDS011;40337;52.978;6.310;2022-07-22T02:23:41;6.13;;;2.40;;
54428;SDS011;40337;52.978;6.310;2022-07-22T02:26:06;7.10;;;2.40;;
54428;SDS011;40337;52.978;6.310;2022-07-22T02:28:32;8.15;;;2.80;;
54428;SDS011;40337;52.978;6.310;2022-07-22T02:30:58;7.15;;;2.80;;
54428;SDS011;40337;52.978;6.310;2022-07-22T02:33:23;6.63;;;2.30;;
54428;SDS011;40337;52.978;6.310;2022-07-22T02:35:49;8.07;;;2.60;;
54428;SDS011;40337;52.978;6.310;2022-07-22T02:38:14;8.80;;;2.60;;
54428;SDS011;40337;52.978;6.310;2022-07-22T02:40:40;10.73;;;2.80;;
54428;SDS011;40337;52.978;6.310;2022-07-22T02:43:05;8.05;;;2.63;;
54428;SDS011;40337;52.978;6.310;2022-07-22T02:45:31;8.00;;;2.78;;
54428;SDS011;40337;52.978;6.310;2022-07-22T02:47:57;7.28;;;3.10;;
54428;SDS011;40337;52.978;6.310;2022-07-22T02:50:23;8.77;;;2.63;;
54428;SDS011;40337;52.978;6.310;2022-07-22T02:52:49;8.57;;;2.90;;
54428;SDS011;40337;52.978;6.310;2022-07-22T02:55:16;6.22;;;2.42;;
54428;SDS011;40337;52.978;6.310;2022-07-22T02:57:42;9.70;;;2.67;;
54428;SDS011;40337;52.978;6.310;2022-07-22T03:00:08;8.10;;;2.63;;
54428;SDS011;40337;52.978;6.310;2022-07-22T03:02:36;8.20;;;2.50;;
54428;SDS011;40337;52.978;6.310;2022-07-22T03:05:03;5.95;;;2.42;;
54428;SDS011;40337;52.978;6.310;2022-07-22T03:07:30;8.40;;;2.70;;
54428;SDS011;40337;52.978;6.310;2022-07-22T03:09:55;6.07;;;2.40;;
54428;SDS011;40337;52.978;6.310;2022-07-22T03:12:21;6.50;;;2.42;;
54428;SDS011;40337;52.978;6.310;2022-07-22T03:14:47;7.38;;;2.60;;
54428;SDS011;40337;52.978;6.310;2022-07-22T03:17:12;6.35;;;2.42;;
54428;SDS011;40337;52.978;6.310;2022-07-22T03:19:38;7.07;;;2.65;;
54428;SDS011;40337;52.978;6.310;2022-07-22T03:22:03;6.85;;;2.53;;
54428;SDS011;40337;52.978;6.310;2022-07-22T03:24:29;7.47;;;2.53;;
54428;SDS011;40337;52.978;6.310;2022-07-22T03:26:55;7.32;;;2.20;;
54428;SDS011;40337;52.978;6.310;2022-07-22T03:29:20;6.75;;;2.47;;
54428;SDS011;40337;52.978;6.310;2022-07-22T03:31:46;4.70;;;2.30;;
54428;SDS011;40337;52.978;6.310;2022-07-22T03:34:11;4.47;;;2.13;;
54428;SDS011;40337;52.978;6.310;2022-07-22T03:36:37;7.35;;;2.40;;
54428;SDS011;40337;52.978;6.310;2022-07-22T03:39:02;7.60;;;2.60;;
54428;SDS011;40337;52.978;6.310;2022-07-22T03:41:28;7.65;;;2.60;;
54428;SDS011;40337;52.978;6.310;2022-07-22T03:43:53;7.40;;;2.67;;
54428;SDS011;40337;52.978;6.310;2022-07-22T03:46:19;5.88;;;2.20;;
54428;SDS011;40337;52.978;6.310;2022-07-22T03:48:45;9.05;;;2.75;;
54428;SDS011;40337;52.978;6.310;2022-07-22T03:51:10;7.15;;;2.33;;
54428;SDS011;40337;52.978;6.310;2022-07-22T03:53:36;5.38;;;2.38;;
54428;SDS011;40337;52.978;6.310;2022-07-22T03:56:02;7.85;;;2.30;;
54428;SDS011;40337;52.978;6.310;2022-07-22T03:58:28;6.63;;;2.40;;
54428;SDS011;40337;52.978;6.310;2022-07-22T04:00:53;6.60;;;2.30;;
54428;SDS011;40337;52.978;6.310;2022-07-22T04:03:19;9.55;;;2.40;;
54428;SDS011;40337;52.978;6.310;2022-07-22T04:05:45;8.05;;;2.60;;
54428;SDS011;40337;52.978;6.310;2022-07-22T04:08:11;6.15;;;2.50;;
54428;SDS011;40337;52.978;6.310;2022-07-22T04:10:37;8.57;;;2.25;;
54428;SDS011;40337;52.978;6.310;2022-07-22T04:13:03;7.20;;;2.50;;
54428;SDS011;40337;52.978;6.310;2022-07-22T04:15:29;10.60;;;2.50;;
54428;SDS011;40337;52.978;6.310;2022-07-22T04:17:55;6.13;;;2.30;;
54428;SDS011;40337;52.978;6.310;2022-07-22T04:20:20;7.15;;;2.30;;
54428;SDS011;40337;52.978;6.310;2022-07-22T04:22:46;8.02;;;2.75;;
54428;SDS011;40337;52.978;6.310;2022-07-22T04:25:11;6.78;;;2.20;;
54428;SDS011;40337;52.978;6.310;2022-07-22T04:27:37;6.47;;;2.38;;
54428;SDS011;40337;52.978;6.310;2022-07-22T04:30:03;7.25;;;2.45;;
54428;SDS011;40337;52.978;6.310;2022-07-22T04:32:29;8.93;;;2.72;;
54428;SDS011;40337;52.978;6.310;2022-07-22T04:34:55;5.25;;;2.25;;
54428;SDS011;40337;52.978;6.310;2022-07-22T04:37:20;5.18;;;2.42;;
54428;SDS011;40337;52.978;6.310;2022-07-22T04:39:46;6.78;;;2.38;;
54428;SDS011;40337;52.978;6.310;2022-07-22T04:42:11;5.43;;;2.20;;
54428;SDS011;40337;52.978;6.310;2022-07-22T04:44:37;8.20;;;2.42;;
54428;SDS011;40337;52.978;6.310;2022-07-22T04:47:02;6.40;;;2.20;;
54428;SDS011;40337;52.978;6.310;2022-07-22T04:49:28;8.07;;;2.40;;
54428;SDS011;40337;52.978;6.310;2022-07-22T04:51:54;5.15;;;2.20;;
54428;SDS011;40337;52.978;6.310;2022-07-22T04:54:19;7.28;;;2.50;;
54428;SDS011;40337;52.978;6.310;2022-07-22T04:56:45;8.48;;;2.10;;
54428;SDS011;40337;52.978;6.310;2022-07-22T04:59:11;5.20;;;2.17;;
54428;SDS011;40337;52.978;6.310;2022-07-22T05:01:36;5.22;;;2.38;;
54428;SDS011;40337;52.978;6.310;2022-07-22T05:04:02;7.05;;;2.45;;
54428;SDS011;40337;52.978;6.310;2022-07-22T05:06:28;8.07;;;2.70;;
54428;SDS011;40337;52.978;6.310;2022-07-22T05:08:53;7.00;;;2.38;;
54428;SDS011;40337;52.978;6.310;2022-07-22T05:11:19;5.57;;;2.60;;
54428;SDS011;40337;52.978;6.310;2022-07-22T05:13:45;4.50;;;2.10;;
54428;SDS011;40337;52.978;6.310;2022-07-22T05:16:10;7.72;;;2.50;;
54428;SDS011;40337;52.978;6.310;2022-07-22T05:18:36;5.32;;;2.15;;
54428;SDS011;40337;52.978;6.310;2022-07-22T05:21:02;6.75;;;2.10;;
54428;SDS011;40337;52.978;6.310;2022-07-22T05:23:28;6.50;;;2.28;;
54428;SDS011;40337;52.978;6.310;2022-07-22T05:25:54;5.65;;;2.42;;
54428;SDS011;40337;52.978;6.310;2022-07-22T05:28:20;12.25;;;2.88;;
54428;SDS011;40337;52.978;6.310;2022-07-22T05:30:46;6.80;;;2.20;;
54428;SDS011;40337;52.978;6.310;2022-07-22T05:33:11;5.85;;;2.20;;
54428;SDS011;40337;52.978;6.310;2022-07-22T05:35:37;6.50;;;2.60;;
54428;SDS011;40337;52.978;6.310;2022-07-22T05:38:02;6.65;;;2.50;;
54428;SDS011;40337;52.978;6.310;2022-07-22T05:40:28;5.95;;;2.38;;
54428;SDS011;40337;52.978;6.310;2022-07-22T05:42:54;6.95;;;2.50;;
54428;SDS011;40337;52.978;6.310;2022-07-22T05:45:20;9.25;;;2.58;;
54428;SDS011;40337;52.978;6.310;2022-07-22T05:47:45;8.25;;;2.65;;
54428;SDS011;40337;52.978;6.310;2022-07-22T05:50:11;6.72;;;2.45;;
54428;SDS011;40337;52.978;6.310;2022-07-22T05:52:37;5.90;;;2.30;;
54428;SDS011;40337;52.978;6.310;2022-07-22T05:55:04;5.72;;;1.95;;
54428;SDS011;40337;52.978;6.310;2022-07-22T05:57:30;7.22;;;2.63;;
54428;SDS011;40337;52.978;6.310;2022-07-22T05:59:55;7.97;;;2.35;;
54428;SDS011;40337;52.978;6.310;2022-07-22T06:02:21;8.02;;;2.53;;
54428;SDS011;40337;52.978;6.310;2022-07-22T06:04:46;6.43;;;2.15;;
54428;SDS011;40337;52.978;6.310;2022-07-22T06:07:12;5.78;;;1.98;;
54428;SDS011;40337;52.978;6.310;2022-07-22T06:09:38;5.57;;;2.28;;
54428;SDS011;40337;52.978;6.310;2022-07-22T06:12:04;6.20;;;2.13;;
54428;SDS011;40337;52.978;6.310;2022-07-22T06:14:29;8.80;;;2.33;;
54428;SDS011;40337;52.978;6.310;2022-07-22T06:16:55;7.72;;;2.30;;
54428;SDS011;40337;52.978;6.310;2022-07-22T06:19:21;6.53;;;2.10;;
54428;SDS011;40337;52.978;6.310;2022-07-22T06:21:46;7.55;;;2.10;;
54428;SDS011;40337;52.978;6.310;2022-07-22T06:24:12;7.03;;;2.20;;
54428;SDS011;40337;52.978;6.310;2022-07-22T06:26:37;6.55;;;2.17;;
54428;SDS011;40337;52.978;6.310;2022-07-22T06:29:03;5.70;;;2.05;;
54428;SDS011;40337;52.978;6.310;2022-07-22T06:31:28;5.82;;;2.08;;
54428;SDS011;40337;52.978;6.310;2022-07-22T06:33:54;5.72;;;2.00;;
54428;SDS011;40337;52.978;6.310;2022-07-22T06:36:20;7.80;;;2.20;;
54428;SDS011;40337;52.978;6.310;2022-07-22T06:38:45;5.07;;;1.88;;
54428;SDS011;40337;52.978;6.310;2022-07-22T06:41:11;5.45;;;1.98;;
54428;SDS011;40337;52.978;6.310;2022-07-22T06:43:38;5.18;;;2.00;;
54428;SDS011;40337;52.978;6.310;2022-07-22T06:46:04;8.77;;;2.20;;
54428;SDS011;40337;52.978;6.310;2022-07-22T06:48:29;5.60;;;2.25;;
54428;SDS011;40337;52.978;6.310;2022-07-22T06:50:55;5.50;;;1.90;;
54428;SDS011;40337;52.978;6.310;2022-07-22T06:53:21;5.75;;;1.88;;
54428;SDS011;40337;52.978;6.310;2022-07-22T06:55:46;7.72;;;1.88;;
54428;SDS011;40337;52.978;6.310;2022-07-22T06:58:12;5.43;;;1.70;;
54428;SDS011;40337;52.978;6.310;2022-07-22T07:00:38;4.60;;;1.90;;
54428;SDS011;40337;52.978;6.310;2022-07-22T07:03:04;7.15;;;2.10;;
54428;SDS011;40337;52.978;6.310;2022-07-22T07:05:29;6.25;;;2.10;;
54428;SDS011;40337;52.978;6.310;2022-07-22T07:07:55;3.88;;;1.60;;
54428;SDS011;40337;52.978;6.310;2022-07-22T07:10:21;4.88;;;1.77;;
54428;SDS011;40337;52.978;6.310;2022-07-22T07:12:47;5.38;;;1.70;;
54428;SDS011;40337;52.978;6.310;2022-07-22T07:15:12;6.45;;;2.00;;
54428;SDS011;40337;52.978;6.310;2022-07-22T07:17:38;6.93;;;2.00;;
54428;SDS011;40337;52.978;6.310;2022-07-22T07:20:04;4.97;;;1.83;;
54428;SDS011;40337;52.978;6.310;2022-07-22T07:22:31;5.50;;;1.67;;
54428;SDS011;40337;52.978;6.310;2022-07-22T07:24:56;4.63;;;1.65;;
54428;SDS011;40337;52.978;6.310;2022-07-22T07:27:26;5.85;;;1.85;;
54428;SDS011;40337;52.978;6.310;2022-07-22T07:29:51;7.95;;;2.30;;
54428;SDS011;40337;52.978;6.310;2022-07-22T07:32:17;6.15;;;1.85;;
54428;SDS011;40337;52.978;6.310;2022-07-22T07:34:42;4.30;;;1.80;;
54428;SDS011;40337;52.978;6.310;2022-07-22T07:37:08;4.88;;;1.63;;
54428;SDS011;40337;52.978;6.310;2022-07-22T07:39:33;4.90;;;1.90;;
54428;SDS011;40337;52.978;6.310;2022-07-22T07:42:00;5.40;;;1.90;;
54428;SDS011;40337;52.978;6.310;2022-07-22T07:44:25;5.07;;;1.63;;
54428;SDS011;40337;52.978;6.310;2022-07-22T07:46:51;6.13;;;2.00;;
54428;SDS011;40337;52.978;6.310;2022-07-22T07:49:17;7.32;;;2.13;;
54428;SDS011;40337;52.978;6.310;2022-07-22T07:51:42;5.45;;;1.70;;
54428;SDS011;40337;52.978;6.310;2022-07-22T07:54:08;6.78;;;1.80;;
54428;SDS011;40337;52.978;6.310;2022-07-22T07:56:33;4.25;;;1.60;;
54428;SDS011;40337;52.978;6.310;2022-07-22T07:58:59;5.47;;;1.80;;
54428;SDS011;40337;52.978;6.310;2022-07-22T08:01:24;6.25;;;1.98;;
54428;SDS011;40337;52.978;6.310;2022-07-22T08:03:50;6.07;;;2.25;;
54428;SDS011;40337;52.978;6.310;2022-07-22T08:06:16;5.07;;;2.00;;
54428;SDS011;40337;52.978;6.310;2022-07-22T08:08:41;7.03;;;2.08;;
54428;SDS011;40337;52.978;6.310;2022-07-22T08:11:07;7.57;;;2.10;;
54428;SDS011;40337;52.978;6.310;2022-07-22T08:13:32;5.72;;;1.58;;
54428;SDS011;40337;52.978;6.310;2022-07-22T08:15:58;5.28;;;2.00;;
54428;SDS011;40337;52.978;6.310;2022-07-22T08:18:27;5.20;;;1.80;;
54428;SDS011;40337;52.978;6.310;2022-07-22T08:20:54;5.72;;;1.65;;
54428;SDS011;40337;52.978;6.310;2022-07-22T08:23:19;5.03;;;1.60;;
54428;SDS011;40337;52.978;6.310;2022-07-22T08:25:45;5.85;;;1.63;;
54428;SDS011;40337;52.978;6.310;2022-07-22T08:28:11;8.38;;;2.15;;
54428;SDS011;40337;52.978;6.310;2022-07-22T08:30:36;4.80;;;1.60;;
54428;SDS011;40337;52.978;6.310;2022-07-22T08:33:02;6.75;;;1.73;;
54428;SDS011;40337;52.978;6.310;2022-07-22T08:35:28;6.28;;;1.67;;
54428;SDS011;40337;52.978;6.310;2022-07-22T08:37:53;3.67;;;1.30;;
54428;SDS011;40337;52.978;6.310;2022-07-22T08:40:19;5.63;;;1.73;;
54428;SDS011;40337;52.978;6.310;2022-07-22T08:42:46;6.95;;;1.67;;
54428;SDS011;40337;52.978;6.310;2022-07-22T08:45:13;5.10;;;1.42;;
54428;SDS011;40337;52.978;6.310;2022-07-22T08:47:39;5.28;;;1.70;;
54428;SDS011;40337;52.978;6.310;2022-07-22T08:50:05;4.28;;;1.42;;
54428;SDS011;40337;52.978;6.310;2022-07-22T08:52:31;6.15;;;1.67;;
54428;SDS011;40337;52.978;6.310;2022-07-22T08:54:56;4.38;;;1.50;;
54428;SDS011;40337;52.978;6.310;2022-07-22T08:57:22;4.22;;;1.50;;
54428;SDS011;40337;52.978;6.310;2022-07-22T08:59:52;5.18;;;1.77;;
54428;SDS011;40337;52.978;6.310;2022-07-22T09:02:22;4.60;;;1.50;;
54428;SDS011;40337;52.978;6.310;2022-07-22T09:04:52;6.45;;;1.77;;
54428;SDS011;40337;52.978;6.310;2022-07-22T09:09:59;6.13;;;1.80;;
54428;SDS011;40337;52.978;6.310;2022-07-22T09:12:26;3.53;;;1.35;;
54428;SDS011;40337;52.978;6.310;2022-07-22T09:14:57;4.95;;;1.67;;
54428;SDS011;40337;52.978;6.310;2022-07-22T09:17:36;4.38;;;1.40;;
54428;SDS011;40337;52.978;6.310;2022-07-22T09:20:14;6.82;;;1.58;;
54428;SDS011;40337;52.978;6.310;2022-07-22T09:22:42;3.88;;;1.42;;
54428;SDS011;40337;52.978;6.310;2022-07-22T09:25:20;3.53;;;1.20;;
54428;SDS011;40337;52.978;6.310;2022-07-22T09:27:46;6.20;;;1.35;;
54428;SDS011;40337;52.978;6.310;2022-07-22T09:30:31;4.93;;;1.38;;
54428;SDS011;40337;52.978;6.310;2022-07-22T09:32:58;8.23;;;1.63;;
54428;SDS011;40337;52.978;6.310;2022-07-22T09:35:24;5.63;;;1.85;;
54428;SDS011;40337;52.978;6.310;2022-07-22T09:37:51;4.95;;;1.40;;
54428;SDS011;40337;52.978;6.310;2022-07-22T09:40:23;3.13;;;1.40;;
54428;SDS011;40337;52.978;6.310;2022-07-22T09:42:51;5.93;;;1.67;;
54428;SDS011;40337;52.978;6.310;2022-07-22T09:45:19;5.20;;;1.50;;
54428;SDS011;40337;52.978;6.310;2022-07-22T09:47:47;3.15;;;1.30;;
54428;SDS011;40337;52.978;6.310;2022-07-22T09:50:23;3.03;;;1.10;;
54428;SDS011;40337;52.978;6.310;2022-07-22T09:52:54;5.38;;;1.23;;
54428;SDS011;40337;52.978;6.310;2022-07-22T09:55:22;3.58;;;1.20;;
54428;SDS011;40337;52.978;6.310;2022-07-22T09:57:49;5.75;;;1.30;;
54428;SDS011;40337;52.978;6.310;2022-07-22T10:00:17;3.92;;;1.27;;
54428;SDS011;40337;52.978;6.310;2022-07-22T10:02:48;4.53;;;1.38;;
54428;SDS011;40337;52.978;6.310;2022-07-22T10:05:20;3.78;;;1.33;;
54428;SDS011;40337;52.978;6.310;2022-07-22T10:07:47;6.10;;;1.38;;
54428;SDS011;40337;52.978;6.310;2022-07-22T10:10:15;3.95;;;1.33;;
54428;SDS011;40337;52.978;6.310;2022-07-22T10:12:42;3.45;;;1.60;;
54428;SDS011;40337;52.978;6.310;2022-07-22T10:15:10;7.70;;;1.60;;
54428;SDS011;40337;52.978;6.310;2022-07-22T10:17:38;5.55;;;1.58;;
54428;SDS011;40337;52.978;6.310;2022-07-22T10:20:06;5.88;;;1.70;;
54428;SDS011;40337;52.978;6.310;2022-07-22T10:25:06;4.75;;;1.50;;
54428;SDS011;40337;52.978;6.310;2022-07-22T10:27:48;2.67;;;1.40;;
54428;SDS011;40337;52.978;6.310;2022-07-22T10:33:05;4.28;;;1.23;;
54428;SDS011;40337;52.978;6.310;2022-07-22T10:36:00;3.60;;;1.23;;
54428;SDS011;40337;52.978;6.310;2022-07-22T10:38:26;3.35;;;1.52;;
54428;SDS011;40337;52.978;6.310;2022-07-22T10:43:26;4.30;;;1.27;;
54428;SDS011;40337;52.978;6.310;2022-07-22T10:45:55;3.85;;;1.65;;
54428;SDS011;40337;52.978;6.310;2022-07-22T10:53:41;4.45;;;1.23;;
54428;SDS011;40337;52.978;6.310;2022-07-22T10:56:11;3.10;;;1.10;;
54428;SDS011;40337;52.978;6.310;2022-07-22T10:58:51;3.67;;;1.10;;
54428;SDS011;40337;52.978;6.310;2022-07-22T11:01:18;3.80;;;1.40;;
54428;SDS011;40337;52.978;6.310;2022-07-22T11:03:48;2.60;;;1.20;;
54428;SDS011;40337;52.978;6.310;2022-07-22T11:06:16;2.30;;;1.10;;
54428;SDS011;40337;52.978;6.310;2022-07-22T11:08:44;3.22;;;1.20;;
54428;SDS011;40337;52.978;6.310;2022-07-22T11:11:12;3.70;;;1.30;;
54428;SDS011;40337;52.978;6.310;2022-07-22T11:13:38;2.80;;;1.27;;
54428;SDS011;40337;52.978;6.310;2022-07-22T11:16:18;1.85;;;0.95;;
54428;SDS011;40337;52.978;6.310;2022-07-22T11:18:52;3.55;;;1.20;;
54428;SDS011;40337;52.978;6.310;2022-07-22T11:21:28;2.63;;;1.00;;
54428;SDS011;40337;52.978;6.310;2022-07-22T11:23:56;4.45;;;1.40;;
54428;SDS011;40337;52.978;6.310;2022-07-22T11:26:26;3.83;;;1.30;;
54428;SDS011;40337;52.978;6.310;2022-07-22T11:29:06;4.00;;;1.27;;
54428;SDS011;40337;52.978;6.310;2022-07-22T11:31:33;2.40;;;1.27;;
54428;SDS011;40337;52.978;6.310;2022-07-22T11:34:05;4.30;;;1.38;;
54428;SDS011;40337;52.978;6.310;2022-07-22T11:36:32;4.28;;;1.58;;
54428;SDS011;40337;52.978;6.310;2022-07-22T11:38:59;3.40;;;1.30;;
54428;SDS011;40337;52.978;6.310;2022-07-22T11:41:27;3.38;;;1.25;;
54428;SDS011;40337;52.978;6.310;2022-07-22T11:43:54;4.95;;;1.40;;
54428;SDS011;40337;52.978;6.310;2022-07-22T11:46:20;4.28;;;1.20;;
54428;SDS011;40337;52.978;6.310;2022-07-22T11:48:45;3.83;;;1.35;;
54428;SDS011;40337;52.978;6.310;2022-07-22T11:51:11;2.92;;;1.10;;
54428;SDS011;40337;52.978;6.310;2022-07-22T11:53:39;3.42;;;1.02;;
54428;SDS011;40337;52.978;6.310;2022-07-22T11:56:06;2.53;;;0.95;;
54428;SDS011;40337;52.978;6.310;2022-07-22T11:58:37;3.08;;;0.98;;
54428;SDS011;40337;52.978;6.310;2022-07-22T12:01:11;4.03;;;1.10;;
54428;SDS011;40337;52.978;6.310;2022-07-22T12:03:39;2.63;;;1.00;;
54428;SDS011;40337;52.978;6.310;2022-07-22T12:06:09;3.88;;;1.20;;
54428;SDS011;40337;52.978;6.310;2022-07-22T12:08:44;2.80;;;1.10;;
54428;SDS011;40337;52.978;6.310;2022-07-22T12:11:13;1.58;;;1.00;;
54428;SDS011;40337;52.978;6.310;2022-07-22T12:13:42;3.33;;;1.08;;
54428;SDS011;40337;52.978;6.310;2022-07-22T12:18:50;3.00;;;1.08;;
54428;SDS011;40337;52.978;6.310;2022-07-22T12:21:17;2.90;;;1.00;;
54428;SDS011;40337;52.978;6.310;2022-07-22T12:23:49;2.55;;;0.90;;
54428;SDS011;40337;52.978;6.310;2022-07-22T12:26:16;2.38;;;0.82;;
54428;SDS011;40337;52.978;6.310;2022-07-22T12:28:42;1.60;;;0.90;;
54428;SDS011;40337;52.978;6.310;2022-07-22T12:31:07;2.63;;;1.00;;
54428;SDS011;40337;52.978;6.310;2022-07-22T12:33:33;3.83;;;1.00;;
54428;SDS011;40337;52.978;6.310;2022-07-22T12:36:03;4.15;;;1.20;;
54428;SDS011;40337;52.978;6.310;2022-07-22T12:38:31;2.42;;;1.27;;
54428;SDS011;40337;52.978;6.310;2022-07-22T12:41:20;2.78;;;1.40;;
54428;SDS011;40337;52.978;6.310;2022-07-22T12:43:50;1.77;;;0.93;;
54428;SDS011;40337;52.978;6.310;2022-07-22T12:46:16;3.40;;;0.82;;
54428;SDS011;40337;52.978;6.310;2022-07-22T12:48:52;3.15;;;0.90;;
54428;SDS011;40337;52.978;6.310;2022-07-22T12:51:18;4.43;;;1.10;;
54428;SDS011;40337;52.978;6.310;2022-07-22T12:53:44;2.25;;;0.80;;
54428;SDS011;40337;52.978;6.310;2022-07-22T12:56:10;2.15;;;0.80;;
54428;SDS011;40337;52.978;6.310;2022-07-22T12:58:36;3.47;;;1.10;;
54428;SDS011;40337;52.978;6.310;2022-07-22T13:01:05;2.58;;;0.80;;
54428;SDS011;40337;52.978;6.310;2022-07-22T13:03:30;3.13;;;1.33;;
54428;SDS011;40337;52.978;6.310;2022-07-22T13:05:58;2.40;;;0.95;;
54428;SDS011;40337;52.978;6.310;2022-07-22T13:08:28;2.80;;;1.10;;
54428;SDS011;40337;52.978;6.310;2022-07-22T13:10:54;3.90;;;1.20;;
54428;SDS011;40337;52.978;6.310;2022-07-22T13:13:21;2.05;;;1.00;;
54428;SDS011;40337;52.978;6.310;2022-07-22T13:15:47;2.63;;;1.00;;
54428;SDS011;40337;52.978;6.310;2022-07-22T13:18:15;2.40;;;0.90;;
54428;SDS011;40337;52.978;6.310;2022-07-22T13:20:41;4.80;;;1.00;;
54428;SDS011;40337;52.978;6.310;2022-07-22T13:23:07;4.00;;;1.10;;
54428;SDS011;40337;52.978;6.310;2022-07-22T13:25:33;2.08;;;1.00;;
54428;SDS011;40337;52.978;6.310;2022-07-22T13:27:59;2.38;;;1.15;;
54428;SDS011;40337;52.978;6.310;2022-07-22T13:30:25;2.40;;;0.80;;
54428;SDS011;40337;52.978;6.310;2022-07-22T13:32:51;2.85;;;1.00;;
54428;SDS011;40337;52.978;6.310;2022-07-22T13:35:17;4.35;;;1.30;;
54428;SDS011;40337;52.978;6.310;2022-07-22T13:37:43;2.13;;;1.02;;
54428;SDS011;40337;52.978;6.310;2022-07-22T13:40:10;5.25;;;1.40;;
54428;SDS011;40337;52.978;6.310;2022-07-22T13:42:37;3.58;;;1.10;;
54428;SDS011;40337;52.978;6.310;2022-07-22T13:45:03;6.10;;;1.08;;
54428;SDS011;40337;52.978;6.310;2022-07-22T13:47:30;2.67;;;1.10;;
54428;SDS011;40337;52.978;6.310;2022-07-22T13:49:55;2.92;;;1.10;;
54428;SDS011;40337;52.978;6.310;2022-07-22T13:52:21;2.78;;;1.10;;
54428;SDS011;40337;52.978;6.310;2022-07-22T13:54:47;3.40;;;1.30;;
54428;SDS011;40337;52.978;6.310;2022-07-22T13:57:14;2.10;;;1.10;;
54428;SDS011;40337;52.978;6.310;2022-07-22T13:59:40;3.28;;;1.02;;
54428;SDS011;40337;52.978;6.310;2022-07-22T14:02:06;2.83;;;1.02;;
54428;SDS011;40337;52.978;6.310;2022-07-22T14:04:32;3.95;;;1.00;;
54428;SDS011;40337;52.978;6.310;2022-07-22T14:06:57;2.97;;;1.10;;
54428;SDS011;40337;52.978;6.310;2022-07-22T14:09:23;2.92;;;1.10;;
54428;SDS011;40337;52.978;6.310;2022-07-22T14:11:49;3.03;;;1.00;;
54428;SDS011;40337;52.978;6.310;2022-07-22T14:14:14;2.25;;;1.15;;
54428;SDS011;40337;52.978;6.310;2022-07-22T14:16:40;4.32;;;1.20;;
54428;SDS011;40337;52.978;6.310;2022-07-22T14:19:08;3.45;;;1.10;;
54428;SDS011;40337;52.978;6.310;2022-07-22T14:21:39;3.22;;;1.40;;
54428;SDS011;40337;52.978;6.310;2022-07-22T14:24:07;4.10;;;1.30;;
54428;SDS011;40337;52.978;6.310;2022-07-22T14:26:34;2.30;;;1.20;;
54428;SDS011;40337;52.978;6.310;2022-07-22T14:29:00;4.65;;;1.73;;
54428;SDS011;40337;52.978;6.310;2022-07-22T14:31:26;2.33;;;1.20;;
54428;SDS011;40337;52.978;6.310;2022-07-22T14:33:53;1.85;;;1.00;;
54428;SDS011;40337;52.978;6.310;2022-07-22T14:36:19;4.95;;;1.25;;
54428;SDS011;40337;52.978;6.310;2022-07-22T14:38:46;2.20;;;1.15;;
54428;SDS011;40337;52.978;6.310;2022-07-22T14:41:11;3.38;;;1.10;;
54428;SDS011;40337;52.978;6.310;2022-07-22T14:43:37;3.05;;;1.30;;
54428;SDS011;40337;52.978;6.310;2022-07-22T14:46:03;3.08;;;1.30;;
54428;SDS011;40337;52.978;6.310;2022-07-22T14:48:36;4.47;;;1.45;;
54428;SDS011;40337;52.978;6.310;2022-07-22T14:51:03;5.10;;;1.88;;
54428;SDS011;40337;52.978;6.310;2022-07-22T14:53:29;3.58;;;1.67;;
54428;SDS011;40337;52.978;6.310;2022-07-22T14:55:54;3.60;;;1.40;;
54428;SDS011;40337;52.978;6.310;2022-07-22T14:58:20;2.47;;;1.30;;
54428;SDS011;40337;52.978;6.310;2022-07-22T15:00:45;3.15;;;1.50;;
54428;SDS011;40337;52.978;6.310;2022-07-22T15:03:11;2.95;;;1.35;;
54428;SDS011;40337;52.978;6.310;2022-07-22T15:05:37;3.28;;;1.50;;